Thunder radar more information blitzortung!


Radar de pluja more information rain snow radar


Visita la nostra xarxa de llocs de meteo:

Template documentation
and downloads

And another site



No particular awareness of the weather is required.    There are no Weather-warnings

Pagina Historial Weather Underground text

Diari Resum Juliol 8, 2017 Unitats:  Imperial    Mètric   Tant
« Previous Dia
SegĂźent Dia »
Diari Setmana Mensual Anual Personalitzada
  Maxima: Minima: Media:
Temperatura: 81.9 °F 68.5 °F 77 °F
Punt de rosada: 65.7 °F 46.8 °F 60.8 °F
Humitat: 79 % 33 % 59 %
Wind Speed: 16.8 mph 0 mph 5.9 mph
RĂ fegues de vent: 16.8 mph - -
Vent:- - SE
Pression baro: 29.9 in 29.8 in -
Precipitacions: 0.04 in    
Historical Graphs
 
 
Dades de taula per Juliol 8, 2017
Temps Temperatura Punt de rosada Pression baro Vent Wind Speed RĂ fegues de vent Humitat Rainfall Rate (Hourly)
00:00 77.4 °F 52.5 °F 29.9 in East 2.3 mph 2.3 mph 42 % 0 in
10:38 75.7 °F 48.4 °F 29.9 in SE 1.2 mph   38 % 0 in
10:43 75.7 °F 48.4 °F 29.9 in SE 2.3 mph   38 % 0 in
10:48 75.7 °F 48.4 °F 29.9 in SE 2.3 mph   38 % 0 in
10:53 77.2 °F 47.5 °F 29.9 in ENE 3.5 mph 3.5 mph 35 % 0 in
10:58 77.7 °F 47.1 °F 29.9 in NNW 2.3 mph 2.3 mph 34 % 0 in
10:59 77.7 °F 47.1 °F 29.9 in NNW 2.3 mph 2.3 mph 34 % 0 in
11:04 78.3 °F 46.8 °F 29.9 in NE 6.2 mph 6.2 mph 33 % 0 in
11:09 77.2 °F 48.2 °F 29.9 in NNE 4.6 mph 4.6 mph 36 % 0 in
11:14 75.2 °F 49.3 °F 29.9 in ENE 3.5 mph 3.5 mph 40 % 0 in
11:19 74.8 °F 49.6 °F 29.9 in NNE 5.8 mph 5.8 mph 41 % 0 in
11:24 75.9 °F 49.8 °F 29.9 in ENE 6.9 mph 6.9 mph 40 % 0 in
11:29 77.2 °F 49.6 °F 29.9 in ESE 4.6 mph 4.6 mph 38 % 0 in
11:34 77.2 °F 50.4 °F 29.9 in East 2.3 mph 2.3 mph 39 % 0 in
11:39 78.6 °F 50.2 °F 29.9 in East 2.3 mph 2.3 mph 37 % 0 in
11:44 78.1 °F 52.5 °F 29.9 in SW 3.6 mph 3.6 mph 41 % 0 in
11:49 76.3 °F 52.2 °F 29.9 in West 2.3 mph 2.4 mph 43 % 0 in
11:54 76.6 °F 51.3 °F 29.9 in WNW 1.4 mph 1.4 mph 41 % 0 in
11:59 77.5 °F 50.5 °F 29.9 in West 1.6 mph   39 % 0 in
12:04 77.9 °F 52.3 °F 29.9 in West 1.2 mph   41 % 0 in
12:09 78.3 °F 52 °F 29.8 in WSW 2.4 mph 2.4 mph 40 % 0 in
12:14 78.6 °F 51.6 °F 29.8 in SW 2.3 mph 2.3 mph 39 % 0 in
12:19 79.3 °F 52.2 °F 29.8 in West 3.5 mph 3.5 mph 39 % 0 in
12:24 79.2 °F 52.2 °F 29.9 in WSW 1.2 mph 1.4 mph 39 % 0 in
12:29 79.2 °F 52.2 °F 29.9 in WSW 3.1 mph 3.1 mph 39 % 0 in
12:34 79.2 °F 52.2 °F 29.9 in SW 7.4 mph 7.4 mph 39 % 0 in
12:39 79.3 °F 52.2 °F 29.9 in SW 6.9 mph 6.9 mph 39 % 0 in
12:44 78.6 °F 52.3 °F 29.9 in South 6.9 mph 6.9 mph 40 % 0 in
12:49 79.2 °F 51.4 °F 29.9 in ESE 8.1 mph 8.1 mph 38 % 0 in
12:54 78.1 °F 51.8 °F 29.9 in NNW 4.6 mph 4.6 mph 40 % 0 in
12:59 77.2 °F 51.6 °F 29.9 in SSW 4.6 mph 4.6 mph 41 % 0 in
13:04 75 °F 51.6 °F 29.9 in WSW 4.6 mph 4.6 mph 44 % 0.04 in
13:09 74.3 °F 52.2 °F 29.9 in SSE 2.3 mph 2.3 mph 46 % 0.04 in
13:14 74.1 °F 53.8 °F 29.9 in South 2.3 mph 2.3 mph 49 % 0.04 in
13:19 74.5 °F 54.7 °F 29.9 in SSE 2 mph 2 mph 50 % 0.04 in
13:24 75 °F 56.1 °F 29.9 in South 2.3 mph 2.3 mph 52 % 0.04 in
13:29 75.4 °F 57 °F 29.9 in ESE 3.5 mph 3.5 mph 53 % 0.04 in
13:34 75.7 °F 57.4 °F 29.9 in ESE 3.5 mph 3.5 mph 53 % 0.04 in
13:39 76.3 °F 58.5 °F 29.9 in ESE 6.2 mph 6.2 mph 54 % 0.04 in
13:44 76.5 °F 59.2 °F 29.9 in ESE 6.9 mph 6.9 mph 55 % 0.04 in
13:49 76.8 °F 59.4 °F 29.9 in East 8.1 mph 8.1 mph 55 % 0.04 in
13:54 77 °F 59.2 °F 29.9 in ESE 10.4 mph 10.4 mph 54 % 0.04 in
13:59 77.2 °F 58.6 °F 29.9 in NNE 10.4 mph 10.4 mph 53 % 0.04 in
14:04 77.4 °F 58.8 °F 29.9 in SE 8.1 mph 8.1 mph 53 % 0 in
14:09 77.5 °F 59.2 °F 29.9 in East 8.1 mph 8.1 mph 53 % 0 in
14:14 77.9 °F 59.4 °F 29.9 in East 11.5 mph 11.5 mph 53 % 0 in
14:19 78.1 °F 59.5 °F 29.9 in SSE 11.5 mph 11.5 mph 53 % 0 in
14:24 78.1 °F 59.5 °F 29.9 in NE 15 mph 15 mph 53 % 0 in
14:29 77.9 °F 60.4 °F 29.9 in ESE 9.2 mph 9.2 mph 55 % 0 in
14:34 78.1 °F 60.6 °F 29.9 in South 9.8 mph 9.8 mph 55 % 0 in
14:39 78.4 °F 60.4 °F 29.9 in SE 11.8 mph 11.8 mph 54 % 0 in
14:44 79 °F 61.3 °F 29.9 in East 11.5 mph 11.5 mph 55 % 0 in
14:49 79 °F 60.4 °F 29.9 in ENE 11.5 mph 11.5 mph 53 % 0 in
14:54 78.8 °F 60.3 °F 29.9 in ESE 8.1 mph 8.1 mph 53 % 0 in
14:59 78.8 °F 60.3 °F 29.9 in ENE 10 mph 10 mph 53 % 0 in
15:04 78.8 °F 60.3 °F 29.9 in East 14.5 mph 14.5 mph 53 % 0 in
15:09 78.6 °F 60.1 °F 29.9 in ENE 10.4 mph 10.4 mph 53 % 0 in
15:14 78.1 °F 60.6 °F 29.9 in ENE 11.5 mph 11.5 mph 55 % 0 in
15:19 77.7 °F 60.8 °F 29.9 in NNE 8.1 mph 8.1 mph 56 % 0 in
15:24 78.1 °F 61.2 °F 29.9 in ENE 8.1 mph 8.1 mph 56 % 0 in
15:29 78.3 °F 61.3 °F 29.9 in East 10.4 mph 10.4 mph 56 % 0 in
15:34 78.6 °F 61.5 °F 29.9 in ESE 11.5 mph 11.5 mph 56 % 0 in
15:39 78.8 °F 61.9 °F 29.9 in East 10.4 mph 10.4 mph 56 % 0 in
15:44 79.2 °F 62.1 °F 29.9 in SE 16.8 mph 16.8 mph 56 % 0 in
15:49 79 °F 61.9 °F 29.9 in ESE 10.7 mph 10.7 mph 56 % 0 in
15:54 79 °F 61.9 °F 29.9 in ENE 13.8 mph 13.8 mph 56 % 0 in
15:59 79.9 °F 62.8 °F 29.9 in SE 8.1 mph 8.1 mph 56 % 0 in
16:04 80.4 °F 63.3 °F 29.9 in ESE 11.5 mph 11.5 mph 56 % 0 in
16:09 80.6 °F 63 °F 29.9 in East 15 mph 15 mph 55 % 0 in
16:14 80.4 °F 63.3 °F 29.9 in East 12.3 mph 12.3 mph 56 % 0 in
16:19 80.6 °F 63 °F 29.9 in ENE 9.2 mph 9.2 mph 55 % 0 in
16:24 79.9 °F 63.3 °F 29.9 in East 12.7 mph 12.7 mph 57 % 0 in
16:29 80.1 °F 63.5 °F 29.9 in East 12.7 mph 12.7 mph 57 % 0 in
16:34 80.1 °F 63.5 °F 29.9 in SE 13.8 mph 13.8 mph 57 % 0 in
16:39 80.1 °F 63.5 °F 29.9 in East 13.8 mph 13.8 mph 57 % 0 in
16:44 79.9 °F 63.3 °F 29.9 in ESE 15 mph 15 mph 57 % 0 in
16:49 80.2 °F 64 °F 29.9 in ESE 12.7 mph 12.7 mph 58 % 0 in
16:54 79.9 °F 63.3 °F 29.9 in ESE 13.7 mph 13.7 mph 57 % 0 in
16:59 79.9 °F 63.9 °F 29.9 in ESE 14 mph 14 mph 58 % 0 in
17:04 80.2 °F 63.7 °F 29.9 in ENE 9.2 mph 9.2 mph 57 % 0 in
17:09 80.2 °F 63.7 °F 29.9 in ENE 8.1 mph 8.1 mph 57 % 0 in
17:14 80.4 °F 63.9 °F 29.9 in ESE 10.4 mph 10.4 mph 57 % 0 in
17:19 80.8 °F 63.1 °F 29.9 in East 12.5 mph 12.5 mph 55 % 0 in
17:24 81 °F 63.3 °F 29.9 in ESE 12.7 mph 12.7 mph 55 % 0 in
17:29 80.8 °F 63.1 °F 29.9 in East 11.5 mph 11.5 mph 55 % 0 in
17:34 81.3 °F 63.7 °F 29.9 in ESE 9.2 mph 9.2 mph 55 % 0 in
17:39 81.1 °F 62.4 °F 29.8 in East 11.5 mph 11.5 mph 53 % 0 in
17:44 81.3 °F 62.6 °F 29.8 in NE 12.7 mph 12.7 mph 53 % 0 in
17:49 81.1 °F 62.4 °F 29.8 in ENE 10.4 mph 10.4 mph 53 % 0 in
17:54 81.3 °F 62.6 °F 29.8 in ENE 9.2 mph 9.2 mph 53 % 0 in
17:59 81.1 °F 63 °F 29.8 in ENE 9.2 mph 9.2 mph 54 % 0 in
18:04 81.5 °F 63.3 °F 29.8 in NE 8.1 mph 8.1 mph 54 % 0 in
18:09 81.7 °F 63 °F 29.8 in East 10.4 mph 10.4 mph 53 % 0 in
18:14 81.9 °F 63.1 °F 29.8 in SE 8.7 mph 8.7 mph 53 % 0 in
18:15 81.9 °F 63.1 °F 29.8 in ESE 10.4 mph 10.4 mph 53 % 0 in
18:20 81.3 °F 62.6 °F 29.8 in ENE 5.8 mph 5.8 mph 53 % 0 in
18:25 81.5 °F 62.8 °F 29.8 in ESE 9.2 mph 9.2 mph 53 % 0 in
18:28 81.7 °F 63 °F 29.8 in ESE 6.9 mph 6.9 mph 53 % 0 in
18:33 81.5 °F 62.8 °F 29.8 in ESE 10.4 mph 10.4 mph 53 % 0 in
18:38 81.5 °F 62.8 °F 29.8 in ESE 9.2 mph 9.2 mph 53 % 0 in
18:43 81.3 °F 63.1 °F 29.8 in ESE 6.9 mph 6.9 mph 54 % 0 in
18:48 81.7 °F 63.3 °F 29.8 in ESE 6.9 mph 6.9 mph 54 % 0 in
18:53 81.5 °F 63.3 °F 29.8 in ESE 8.1 mph 8.1 mph 54 % 0 in
18:58 81.5 °F 63.3 °F 29.8 in East 5.8 mph 6.4 mph 54 % 0 in
19:03 81.7 °F 63.3 °F 29.8 in ESE 6.9 mph 6.9 mph 54 % 0 in
19:08 81.3 °F 62.6 °F 29.8 in ENE 4.6 mph 4.6 mph 53 % 0 in
19:13 81.3 °F 63.1 °F 29.8 in ESE 5.8 mph 5.9 mph 54 % 0 in
19:18 81.1 °F 63 °F 29.8 in NE 8.1 mph 8.1 mph 54 % 0 in
19:23 81 °F 63.3 °F 29.8 in ESE 7.6 mph 7.6 mph 55 % 0 in
19:28 80.6 °F 63.5 °F 29.8 in ESE 8.1 mph 8.1 mph 56 % 0 in
19:33 80.6 °F 64 °F 29.8 in SSE 6.9 mph 6.9 mph 57 % 0 in
19:38 80.4 °F 64.2 °F 29.8 in ESE 6.9 mph 6.9 mph 58 % 0 in
19:40 72.7 °F 65.1 °F 29.9 in WNW 1 mph 2 mph 77 % 0 in
19:43 80.4 °F 64.2 °F 29.8 in ESE 9.2 mph 9.2 mph 58 % 0 in
19:48 80.2 °F 64 °F 29.8 in SE 4.9 mph 4.9 mph 58 % 0 in
19:50 72.7 °F 65.1 °F 29.8 in NE 1 mph 1 mph 77 % 0 in
19:53 79.9 °F 63.9 °F 29.8 in ESE 4.6 mph 4.6 mph 58 % 0 in
19:58 79.7 °F 64 °F 29.8 in ESE 5.8 mph 5.8 mph 59 % 0 in
20:00 72.5 °F 64.9 °F 29.8 in Calm   1 mph 77 % 0 in
20:03 79.3 °F 63.9 °F 29.8 in ESE 5.8 mph 5.8 mph 59 % 0 in
20:08 79.2 °F 64 °F 29.8 in ESE 4.6 mph 4.6 mph 60 % 0 in
20:10 72.5 °F 64.9 °F 29.8 in Calm   1 mph 77 % 0 in
20:13 78.8 °F 63.7 °F 29.8 in ESE 6.9 mph 6.9 mph 60 % 0 in
20:18 78.6 °F 63.7 °F 29.8 in East 4.6 mph 4.6 mph 60 % 0 in
20:20 72.5 °F 65.1 °F 29.8 in NNE 1 mph 1 mph 78 % 0 in
20:23 78.4 °F 63.9 °F 29.8 in ESE 6.4 mph 6.4 mph 61 % 0 in
20:28 77.9 °F 63.9 °F 29.8 in ENE 6.9 mph 6.9 mph 62 % 0 in
20:30 72.3 °F 65.1 °F 29.8 in Calm   2 mph 78 % 0 in
20:33 77.7 °F 63.7 °F 29.8 in ENE 9.2 mph 9.2 mph 62 % 0 in
20:38 77.5 °F 63.9 °F 29.8 in East 5.8 mph 5.8 mph 63 % 0 in
20:40 72.1 °F 64.9 °F 29.8 in Calm   1 mph 78 % 0 in
20:43 77.2 °F 64 °F 29.8 in ESE 8.1 mph 8.1 mph 64 % 0 in
20:48 77 °F 63.9 °F 29.8 in ESE 8.5 mph 8.5 mph 64 % 0 in
20:50 72 °F 64.8 °F 29.8 in Calm     78 % 0 in
20:53 76.6 °F 64.9 °F 29.8 in ESE 8.1 mph 8.1 mph 67 % 0 in
20:58 76.5 °F 64.8 °F 29.8 in ESE 5.8 mph 5.8 mph 67 % 0 in
21:00 72 °F 64.8 °F 29.8 in Calm   1 mph 78 % 0 in
21:03 76.5 °F 64.8 °F 29.8 in ESE 4.6 mph 4.6 mph 67 % 0 in
21:08 76.3 °F 64.9 °F 29.8 in ENE 6.9 mph 6.9 mph 68 % 0 in
21:10 71.8 °F 64.6 °F 29.8 in WNW 1 mph 1 mph 78 % 0 in
21:13 76.1 °F 64.8 °F 29.8 in SE 4 mph 4 mph 68 % 0 in
21:18 75.9 °F 64.6 °F 29.8 in ESE 4.6 mph 4.6 mph 68 % 0 in
21:20 71.4 °F 64.6 °F 29.8 in Calm   2 mph 79 % 0 in
21:23 75.7 °F 64.8 °F 29.8 in ESE 6.2 mph 6.2 mph 69 % 0 in
21:28 75.7 °F 65.3 °F 29.8 in East 6.9 mph 6.9 mph 70 % 0 in
21:30 71.6 °F 64.8 °F 29.8 in Calm   2 mph 79 % 0 in
21:33 75.6 °F 65.1 °F 29.8 in ENE 6.9 mph 6.9 mph 70 % 0 in
21:38 75.4 °F 64.9 °F 29.8 in ENE 4.6 mph 4.6 mph 70 % 0 in
21:40 71.2 °F 63.7 °F 29.8 in SE 1 mph 2 mph 77 % 0 in
21:43 75.4 °F 64.9 °F 29.8 in East 5.6 mph 5.6 mph 70 % 0 in
21:48 75.2 °F 64.8 °F 29.8 in ESE 5.8 mph 5.8 mph 70 % 0 in
21:50 71.2 °F 63.7 °F 29.8 in SW 1 mph 2 mph 77 % 0 in
21:53 75.2 °F 65.1 °F 29.8 in ESE 4.6 mph 4.6 mph 71 % 0 in
21:58 75 °F 65.5 °F 29.8 in NNE 3.5 mph 3.5 mph 72 % 0 in
22:00 71.1 °F 62.8 °F 29.8 in WSW 3 mph 3 mph 75 % 0 in
22:03 75 °F 64.9 °F 29.8 in ENE 2.3 mph 2.3 mph 71 % 0 in
22:08 74.8 °F 65.1 °F 29.8 in North 2.3 mph 2.3 mph 72 % 0 in
22:10 70.9 °F 62.6 °F 29.8 in WSW 1 mph 2 mph 75 % 0 in
22:13 74.7 °F 64.9 °F 29.8 in NE 2.3 mph 2.3 mph 72 % 0 in
22:18 74.5 °F 64.9 °F 29.8 in East 3.5 mph 3.5 mph 72 % 0 in
22:20 70.7 °F 61.5 °F 29.8 in Calm   1 mph 73 % 0 in
22:23 74.5 °F 64.9 °F 29.8 in East 3.5 mph 3.5 mph 72 % 0 in
22:28 74.5 °F 64.9 °F 29.8 in ENE 2.3 mph 2.3 mph 72 % 0 in
22:30 70.9 °F 61.3 °F 29.8 in Calm   2 mph 72 % 0 in
22:33 74.3 °F 64.8 °F 29.8 in ENE 3.5 mph 3.5 mph 72 % 0 in
22:38 74.3 °F 65.1 °F 29.8 in ENE 2.4 mph 2.4 mph 73 % 0 in
22:40 70.5 °F 61.2 °F 29.8 in Calm   1 mph 72 % 0 in
22:43 74.3 °F 65.1 °F 29.9 in ESE 2.4 mph 2.4 mph 73 % 0 in
22:48 74.3 °F 65.5 °F 29.9 in East 4.6 mph 4.6 mph 74 % 0 in
22:50 69.8 °F 60.4 °F 29.8 in WSW 1 mph 2 mph 72 % 0 in
22:53 74.3 °F 65.5 °F 29.9 in SE 3.1 mph 3.1 mph 74 % 0 in
22:58 74.1 °F 65.3 °F 29.9 in SE 2.3 mph 2.3 mph 74 % 0 in
23:00 69.4 °F 60.1 °F 29.8 in Calm   2 mph 72 % 0 in
23:03 74.1 °F 65.3 °F 29.9 in ENE 3.1 mph 3.1 mph 74 % 0 in
23:08 74.1 °F 65.7 °F 29.9 in East 2.4 mph 2.4 mph 75 % 0 in
23:10 69.4 °F 60.1 °F 29.8 in SW 2 mph 2 mph 72 % 0 in
23:13 73.9 °F 65.1 °F 29.9 in SE 2.3 mph 2.3 mph 74 % 0 in
23:18 73.8 °F 64.9 °F 29.9 in ENE 1.2 mph 1.2 mph 74 % 0 in
23:20 69.3 °F 59.7 °F 29.8 in WSW 2 mph 4 mph 72 % 0 in
23:23 73.6 °F 64.8 °F 29.9 in SW 2.3 mph 2.3 mph 74 % 0 in
23:28 73.4 °F 64.6 °F 29.9 in SW 1.4 mph 1.4 mph 74 % 0 in
23:30 69.3 °F 59.7 °F 29.8 in WSW 1 mph 3 mph 72 % 0 in
23:33 73 °F 64.6 °F 29.9 in SW 2.3 mph 2.3 mph 75 % 0 in
23:38 73 °F 64.6 °F 29.9 in Calm     75 % 0 in
23:40 68.9 °F 59.5 °F 29.8 in SW 1 mph 2 mph 72 % 0 in
23:43 73 °F 64.6 °F 29.9 in Calm     75 % 0 in
23:48 73 °F 64.6 °F 29.9 in SW 2.3 mph 2.3 mph 75 % 0 in
23:50 68.5 °F 59.2 °F 29.8 in SW 2 mph 2 mph 72 % 0 in
23:53 72.9 °F 64.6 °F 29.9 in SW 2.3 mph 2.3 mph 75 % 0 in
23:58 72.7 °F 64.2 °F 29.9 in WSW 2.3 mph 2.3 mph 75 % 0 in
Meteo Sesrovires
Elogis d' Weather Underground - 3.5 mb

Guio original per  Jim McMurry - jmcmurry@mwt.net Adaptat per a la plantilla per  Wim van der Kuil - Leuven-Template.eu

Trobareu la nostra informacio del temps tambe a:

Weather Underground

AWEKAS